aviador You're here:

ZYTX Decoded Metar

SHENYANG/TAOKIAN in CHINA
Report Time2018-04-23 22:30:00
UTC Time2018-04-23 23:08:44
Flight Rules ifr IFR
WindVRB at 2 kt
Visibility3000 m
Phenomena:Mist
Clouds:N/A
CeilingNone
Temp09°C (ISA -6)
Dew Point09°C (100% RH)
AAT8.1°C
QNH1017 hPa
Density Alt-558 ft
Elevation115 ft
Report Wrong Elevation
Raw Report
METAR ZYTX 232230Z VRB01MPS 3000 BR NSC 09/09 Q1017 NOSIG=####018000497####
SASA KAWN 232300

Extra information for ZYTX:More info

Metar Taf Metar & Taf Last 4 Metars F.Rules Stats Wind Profile Meteogram Temp Stats Airport Information Weather charts Add Link Nearby VenuesMetar ALERT Operation Metar Decoded Social comments